createdAt,value
2022-12-17T14:05:33.622Z,83.71
2022-12-17T14:20:37.548Z,84.23
2022-12-17T14:35:41.063Z,84.60
2022-12-17T14:50:55.066Z,84.48
2022-12-17T15:06:02.521Z,84.53
2022-12-17T15:21:06.211Z,84.86
2022-12-17T15:36:12.165Z,84.82
2022-12-17T15:51:19.532Z,84.72
2022-12-17T16:06:23.424Z,85.46
2022-12-17T16:21:27.315Z,85.70
2022-12-17T16:36:31.046Z,85.85
2022-12-17T16:51:35.552Z,85.96
2022-12-17T17:06:45.570Z,85.93
2022-12-17T17:21:54.572Z,86.34
2022-12-17T17:36:58.070Z,85.87
2022-12-17T17:52:10.218Z,86.33
2022-12-17T18:07:30.045Z,87.12
2022-12-17T18:22:33.798Z,87.34
2022-12-17T18:37:38.966Z,87.55
2022-12-17T18:52:42.547Z,87.91
2022-12-17T19:07:46.386Z,88.12
2022-12-17T19:22:49.956Z,88.29
2022-12-17T19:37:54.010Z,89.28
2022-12-17T19:52:57.359Z,89.18
2022-12-17T20:08:01.001Z,88.98
2022-12-17T20:23:04.837Z,89.12
2022-12-17T20:38:08.707Z,89.56
2022-12-17T20:53:12.835Z,90.12
2022-12-17T21:08:16.833Z,90.46
2022-12-17T21:23:20.898Z,90.48
2022-12-17T21:38:28.039Z,90.88
2022-12-17T21:53:31.413Z,91.16
2022-12-17T22:08:35.987Z,90.78
2022-12-17T22:23:39.975Z,89.81
2022-12-17T22:42:17.671Z,89.61
2022-12-17T22:54:07.461Z,91.54
2022-12-17T23:09:12.165Z,91.77
2022-12-17T23:24:15.402Z,92.07
2022-12-17T23:39:18.548Z,92.25
2022-12-17T23:54:21.830Z,92.36
